Time,TemperatureF,DewpointF,PressureIn,WindDirection,WindDirectionDegrees,WindSpeedMPH,WindSpeedGustMPH,Humidity,HourlyPrecipIn,Conditions,Clouds,dailyrainin,SoftwareType,DateUTC
2013-07-10 00:22:00,77.0,77.0,30.09,ENE,65,2.0,4.0,100,99.99,,,-99.99,,2013-07-10 04:22:00,
2013-07-10 00:33:00,76.0,76.0,30.09,ENE,72,1.0,3.0,100,99.99,,,-99.99,,2013-07-10 04:33:00,
2013-07-10 00:43:00,76.0,76.0,30.09,North,0,0.0,0.0,100,99.99,,,-99.99,,2013-07-10 04:43:00,
2013-07-10 00:52:00,76.0,76.0,30.09,East,93,0.0,2.0,100,99.99,,,-99.99,,2013-07-10 04:52:00,
2013-07-10 01:32:00,75.0,75.0,30.09,North,0,0.0,0.0,100,99.99,,,-99.99,,2013-07-10 05:32:00,
2013-07-10 02:01:00,74.0,74.0,30.09,North,0,0.0,0.0,100,99.99,,,-99.99,,2013-07-10 06:01:00,
2013-07-10 02:11:00,74.0,74.0,30.09,North,0,0.0,0.0,100,99.99,,,-99.99,,2013-07-10 06:11:00,
2013-07-10 02:32:00,74.0,74.0,30.08,North,0,0.0,0.0,100,99.99,,,-99.99,,2013-07-10 06:32:00,
2013-07-10 02:42:00,74.0,74.0,30.08,ESE,113,1.0,3.0,100,99.99,,,-99.99,,2013-07-10 06:42:00,
2013-07-10 02:52:00,74.0,74.0,30.08,ESE,113,0.0,2.0,100,99.99,,,-99.99,,2013-07-10 06:52:00,
2013-07-10 03:01:00,74.0,74.0,30.08,East,98,0.0,1.0,100,99.99,,,-99.99,,2013-07-10 07:01:00,
2013-07-10 03:12:00,74.0,74.0,30.08,ESE,122,1.0,3.0,100,99.99,,,-99.99,,2013-07-10 07:12:00,
2013-07-10 03:22:00,74.0,74.0,30.07,ESE,115,2.0,4.0,100,99.99,,,-99.99,,2013-07-10 07:22:00,
2013-07-10 03:33:00,74.0,74.0,30.07,SE,127,2.0,3.0,100,99.99,,,-99.99,,2013-07-10 07:33:00,
2013-07-10 03:43:00,74.0,74.0,30.07,ESE,108,2.0,4.0,100,99.99,,,-99.99,,2013-07-10 07:43:00,
2013-07-10 03:53:00,74.0,74.0,30.07,SE,127,2.0,3.0,100,99.99,,,-99.99,,2013-07-10 07:53:00,
2013-07-10 04:01:00,74.0,74.0,30.07,SE,129,0.0,2.0,100,99.99,,,-99.99,,2013-07-10 08:01:00,
2013-07-10 04:11:00,74.0,74.0,30.07,ENE,65,2.0,3.0,100,99.99,,,-99.99,,2013-07-10 08:11:00,
2013-07-10 04:33:00,74.0,74.0,30.07,North,0,0.0,0.0,100,99.99,,,-99.99,,2013-07-10 08:33:00,
2013-07-10 04:42:00,73.0,73.0,30.07,North,0,0.0,0.0,100,99.99,,,-99.99,,2013-07-10 08:42:00,
2013-07-10 04:53:00,73.0,73.0,30.07,North,0,0.0,0.0,100,99.99,,,-99.99,,2013-07-10 08:53:00,
2013-07-10 05:02:00,73.0,73.0,30.06,North,0,0.0,0.0,100,99.99,,,-99.99,,2013-07-10 09:02:00,
2013-07-10 05:12:00,73.0,73.0,30.07,North,0,0.0,0.0,100,99.99,,,-99.99,,2013-07-10 09:12:00,
2013-07-10 05:32:00,73.0,73.0,30.07,North,0,0.0,0.0,100,99.99,,,-99.99,,2013-07-10 09:32:00,
2013-07-10 05:42:00,73.0,73.0,30.07,NE,41,1.0,2.0,100,99.99,,,-99.99,,2013-07-10 09:42:00,
2013-07-10 06:13:00,73.0,73.0,30.06,ENE,77,1.0,2.0,100,99.99,,,-99.99,,2013-07-10 10:13:00,
2013-07-10 06:50:00,-999.0,-99.9,30.06,North,0,0.0,0.0,-999,-99.99,,,-99.99,,2013-07-10 10:50:00,
2013-07-10 07:00:00,-999.0,-99.9,30.06,South,176,1.0,3.0,-999,-99.99,,,-99.99,,2013-07-10 11:00:00,
2013-07-10 07:43:00,74.0,74.0,30.07,North,0,0.0,0.0,100,99.99,,,-99.99,,2013-07-10 11:43:00,
2013-07-10 07:52:00,74.0,74.0,30.07,NE,38,1.0,4.0,100,99.99,,,-99.99,,2013-07-10 11:52:00,
2013-07-10 08:11:00,75.0,75.0,30.07,NE,49,2.0,5.0,100,99.99,,,-99.99,,2013-07-10 12:11:00,
2013-07-10 08:33:00,76.0,76.0,30.07,NE,56,3.0,5.0,100,99.99,,,-99.99,,2013-07-10 12:33:00,
2013-07-10 08:43:00,76.0,76.0,30.08,East,80,3.0,6.0,100,99.99,,,-99.99,,2013-07-10 12:43:00,
2013-07-10 08:53:00,77.0,77.0,30.08,ENE,68,2.0,5.0,100,99.99,,,-99.99,,2013-07-10 12:53:00,
2013-07-10 09:43:00,80.0,77.0,30.09,NNE,24,1.0,5.0,92,99.99,,,-99.99,,2013-07-10 13:43:00,
2013-07-10 09:52:00,81.0,77.0,30.09,North,359,3.0,5.0,88,99.99,,,-99.99,,2013-07-10 13:52:00,
2013-07-10 10:01:00,82.0,75.0,30.09,NE,44,1.0,5.0,80,99.99,,,-99.99,,2013-07-10 14:01:00,
2013-07-10 10:11:00,82.0,75.0,30.09,North,359,2.0,5.0,79,99.99,,,-99.99,,2013-07-10 14:11:00,
2013-07-10 10:43:00,84.0,74.0,30.09,North,0,0.0,0.0,71,99.99,,,-99.99,,2013-07-10 14:43:00,
2013-07-10 10:53:00,84.0,73.0,30.09,SSE,160,1.0,4.0,70,99.99,,,-99.99,,2013-07-10 14:53:00,
2013-07-10 11:11:00,87.0,73.0,30.09,ENE,58,1.0,9.0,63,99.99,,,-99.99,,2013-07-10 15:11:00,
2013-07-10 11:34:00,86.0,73.0,30.09,SW,236,0.0,1.0,65,99.99,,,-99.99,,2013-07-10 15:34:00,
2013-07-10 11:52:00,87.0,73.0,30.08,NE,48,5.0,8.0,63,99.99,,,-99.99,,2013-07-10 15:52:00,
2013-07-10 12:01:00,87.0,72.0,30.08,ENE,75,4.0,8.0,61,99.99,,,-99.99,,2013-07-10 16:01:00,
2013-07-10 12:33:00,90.0,72.0,30.07,ENE,66,2.0,5.0,55,99.99,,,-99.99,,2013-07-10 16:33:00,
2013-07-10 12:44:00,90.0,71.0,30.07,NE,52,4.0,8.0,53,99.99,,,-99.99,,2013-07-10 16:44:00,
2013-07-10 12:53:00,90.0,72.0,30.07,South,169,2.0,6.0,55,99.99,,,-99.99,,2013-07-10 16:53:00,
2013-07-10 13:32:00,90.0,71.0,30.06,SSE,149,2.0,6.0,54,99.99,,,-99.99,,2013-07-10 17:32:00,
2013-07-10 14:11:00,90.0,71.0,30.05,NE,53,3.0,6.0,53,99.99,,,-99.99,,2013-07-10 18:11:00,
2013-07-10 14:53:00,89.0,71.0,30.03,NE,49,3.0,7.0,56,99.99,,,-99.99,,2013-07-10 18:53:00,
2013-07-10 15:32:00,89.0,72.0,30.02,SE,131,2.0,5.0,57,99.99,,,-99.99,,2013-07-10 19:32:00,
2013-07-10 15:42:00,88.0,70.0,30.02,ENE,65,2.0,4.0,55,99.99,,,-99.99,,2013-07-10 19:42:00,
2013-07-10 15:52:00,89.0,71.0,30.02,North,0,0.0,0.0,56,99.99,,,-99.99,,2013-07-10 19:52:00,
2013-07-10 16:01:00,90.0,72.0,30.01,SE,145,5.0,10.0,55,99.99,,,-99.99,,2013-07-10 20:01:00,
2013-07-10 16:11:00,90.0,72.0,30.01,SE,145,4.0,5.0,56,99.99,,,-99.99,,2013-07-10 20:11:00,
2013-07-10 16:32:00,87.0,73.0,30.00,South,169,11.0,16.0,63,99.99,,,-99.99,,2013-07-10 20:32:00,
2013-07-10 16:52:00,88.0,72.0,30.00,SE,146,5.0,12.0,59,99.99,,,-99.99,,2013-07-10 20:52:00,
2013-07-10 17:22:00,89.0,72.0,29.99,South,179,4.0,7.0,58,99.99,,,-99.99,,2013-07-10 21:22:00,
2013-07-10 17:32:00,90.0,72.0,29.98,SE,143,5.0,8.0,55,99.99,,,-99.99,,2013-07-10 21:32:00,
2013-07-10 17:42:00,90.0,71.0,29.98,East,80,3.0,6.0,54,99.99,,,-99.99,,2013-07-10 21:42:00,
2013-07-10 17:52:00,91.0,71.0,29.98,SSE,149,6.0,10.0,53,99.99,,,-99.99,,2013-07-10 21:52:00,
2013-07-10 18:42:00,91.0,71.0,29.98,SSE,167,6.0,8.0,53,99.99,,,-99.99,,2013-07-10 22:42:00,
2013-07-10 19:01:00,88.0,72.0,29.98,SSE,167,7.0,11.0,60,99.99,,,-99.99,,2013-07-10 23:01:00,
2013-07-10 19:11:00,88.0,73.0,29.98,South,169,8.0,10.0,61,99.99,,,-99.99,,2013-07-10 23:11:00,
2013-07-10 19:32:00,83.0,75.0,30.00,SE,145,12.0,21.0,77,99.99,,,-99.99,,2013-07-10 23:32:00,
2013-07-10 19:43:00,83.0,75.0,30.00,SE,145,12.0,21.0,77,99.99,,,-99.99,,2013-07-10 23:43:00,
2013-07-10 19:52:00,79.0,78.0,30.01,SSE,149,10.0,23.0,97,99.99,,,-99.99,,2013-07-10 23:52:00,
2013-07-10 20:01:00,76.0,76.0,30.01,SSE,148,7.0,12.0,100,99.99,,,-99.99,,2013-07-11 00:01:00,
2013-07-10 20:11:00,75.0,75.0,30.01,SE,139,7.0,10.0,100,99.99,,,-99.99,,2013-07-11 00:11:00,
2013-07-10 20:22:00,75.0,75.0,30.00,SE,145,5.0,9.0,100,99.99,,,-99.99,,2013-07-11 00:22:00,
2013-07-10 20:32:00,75.0,75.0,30.00,SE,136,6.0,9.0,100,99.99,,,-99.99,,2013-07-11 00:32:00,
2013-07-10 20:42:00,75.0,75.0,30.00,SE,136,6.0,9.0,100,99.99,,,-99.99,,2013-07-11 00:42:00,
2013-07-10 20:52:00,75.0,75.0,30.00,South,174,7.0,10.0,100,99.99,,,-99.99,,2013-07-11 00:52:00,
2013-07-10 21:01:00,75.0,75.0,30.01,South,184,2.0,4.0,100,99.99,,,-99.99,,2013-07-11 01:01:00,
2013-07-10 21:11:00,75.0,75.0,30.01,South,187,2.0,4.0,100,99.99,,,-99.99,,2013-07-11 01:11:00,
2013-07-10 21:32:00,75.0,75.0,30.01,WSW,238,3.0,5.0,100,99.99,,,-99.99,,2013-07-11 01:32:00,
2013-07-10 21:43:00,75.0,75.0,30.02,SSE,165,4.0,8.0,100,99.99,,,-99.99,,2013-07-11 01:43:00,
2013-07-10 21:52:00,75.0,75.0,30.03,South,184,3.0,5.0,100,99.99,,,-99.99,,2013-07-11 01:52:00,
2013-07-10 22:02:00,75.0,75.0,30.03,South,174,2.0,4.0,100,99.99,,,-99.99,,2013-07-11 02:02:00,
2013-07-10 22:11:00,75.0,75.0,30.03,South,186,2.0,4.0,100,99.99,,,-99.99,,2013-07-11 02:11:00,
2013-07-10 22:22:00,75.0,75.0,30.03,South,186,2.0,4.0,100,99.99,,,-99.99,,2013-07-11 02:22:00,
2013-07-10 22:43:00,75.0,75.0,30.04,North,0,0.0,0.0,100,99.99,,,-99.99,,2013-07-11 02:43:00,
2013-07-10 23:02:00,75.0,75.0,30.04,North,0,0.0,0.0,100,99.99,,,-99.99,,2013-07-11 03:02:00,
2013-07-10 23:33:00,75.0,75.0,30.05,SSW,198,0.0,1.0,100,99.99,,,-99.99,,2013-07-11 03:33:00,
2013-07-10 23:42:00,75.0,75.0,30.05,SSE,152,1.0,5.0,100,99.99,,,-99.99,,2013-07-11 03:42:00,
2013-07-10 23:52:00,75.0,75.0,30.05,SE,145,3.0,5.0,100,99.99,,,-99.99,,2013-07-11 03:52:00,